sensor_id;sensor_type;location;lat;lon;timestamp;pressure;altitude;pressure_sealevel;temperature
66473;BMP280;70264;48.802;9.224;2023-07-24T00:01:48;98361.25;;;20.73
66473;BMP280;70264;48.802;9.224;2023-07-24T00:04:15;98334.66;;;20.61
66473;BMP280;70264;48.802;9.224;2023-07-24T00:06:43;98358.03;;;20.46
66473;BMP280;70264;48.802;9.224;2023-07-24T00:09:11;98406.22;;;20.27
66473;BMP280;70264;48.802;9.224;2023-07-24T00:11:40;98409.31;;;20.29
66473;BMP280;70264;48.802;9.224;2023-07-24T00:14:08;98370.66;;;20.32
66473;BMP280;70264;48.802;9.224;2023-07-24T00:16:33;98379.75;;;20.30
66473;BMP280;70264;48.802;9.224;2023-07-24T00:19:01;98377.91;;;20.25
66473;BMP280;70264;48.802;9.224;2023-07-24T00:21:28;98373.22;;;20.27
66473;BMP280;70264;48.802;9.224;2023-07-24T00:23:57;98375.78;;;20.17
66473;BMP280;70264;48.802;9.224;2023-07-24T00:26:22;98370.63;;;20.22
66473;BMP280;70264;48.802;9.224;2023-07-24T00:28:49;98345.31;;;19.98
66473;BMP280;70264;48.802;9.224;2023-07-24T00:31:18;98354.66;;;20.04
66473;BMP280;70264;48.802;9.224;2023-07-24T00:33:43;98349.97;;;19.96
66473;BMP280;70264;48.802;9.224;2023-07-24T00:36:11;98333.25;;;19.81
66473;BMP280;70264;48.802;9.224;2023-07-24T00:38:36;98331.19;;;19.78
66473;BMP280;70264;48.802;9.224;2023-07-24T00:41:01;98331.09;;;19.68
66473;BMP280;70264;48.802;9.224;2023-07-24T00:43:29;98326.63;;;19.64
66473;BMP280;70264;48.802;9.224;2023-07-24T00:45:56;98320.28;;;19.81
66473;BMP280;70264;48.802;9.224;2023-07-24T00:48:22;98323.41;;;19.78
66473;BMP280;70264;48.802;9.224;2023-07-24T00:50:52;98325.28;;;19.56
66473;BMP280;70264;48.802;9.224;2023-07-24T00:53:19;98317.78;;;19.60
66473;BMP280;70264;48.802;9.224;2023-07-24T00:55:45;98318.63;;;19.65
66473;BMP280;70264;48.802;9.224;2023-07-24T00:58:11;98310.78;;;19.55
66473;BMP280;70264;48.802;9.224;2023-07-24T01:00:39;98307.91;;;19.52
66473;BMP280;70264;48.802;9.224;2023-07-24T01:03:05;98311.84;;;19.54
66473;BMP280;70264;48.802;9.224;2023-07-24T01:05:30;98303.94;;;19.44
66473;BMP280;70264;48.802;9.224;2023-07-24T01:07:58;98295.63;;;19.42
66473;BMP280;70264;48.802;9.224;2023-07-24T01:10:26;98295.56;;;19.37
66473;BMP280;70264;48.802;9.224;2023-07-24T01:15:42;98280.34;;;19.41
66473;BMP280;70264;48.802;9.224;2023-07-24T01:18:10;98281.41;;;19.45
66473;BMP280;70264;48.802;9.224;2023-07-24T01:20:37;98281.59;;;19.38
66473;BMP280;70264;48.802;9.224;2023-07-24T01:25:57;98282.94;;;19.46
66473;BMP280;70264;48.802;9.224;2023-07-24T01:28:23;98274.31;;;19.35
66473;BMP280;70264;48.802;9.224;2023-07-24T01:30:51;98268.88;;;19.37
66473;BMP280;70264;48.802;9.224;2023-07-24T01:33:17;98270.19;;;19.39
66473;BMP280;70264;48.802;9.224;2023-07-24T01:35:43;98275.47;;;19.49
66473;BMP280;70264;48.802;9.224;2023-07-24T01:38:10;98279.78;;;19.39
66473;BMP280;70264;48.802;9.224;2023-07-24T01:40:38;98282.13;;;19.40
66473;BMP280;70264;48.802;9.224;2023-07-24T01:43:06;98277.44;;;19.37
66473;BMP280;70264;48.802;9.224;2023-07-24T01:45:31;98271.25;;;19.43
66473;BMP280;70264;48.802;9.224;2023-07-24T01:47:57;98271.78;;;19.40
66473;BMP280;70264;48.802;9.224;2023-07-24T01:50:25;98279.03;;;19.43
66473;BMP280;70264;48.802;9.224;2023-07-24T01:52:57;98280.34;;;19.41
66473;BMP280;70264;48.802;9.224;2023-07-24T01:55:22;98273.81;;;19.38
66473;BMP280;70264;48.802;9.224;2023-07-24T01:57:50;98274.66;;;19.44
66473;BMP280;70264;48.802;9.224;2023-07-24T02:00:18;98272.56;;;19.46
66473;BMP280;70264;48.802;9.224;2023-07-24T02:02:43;98280.72;;;19.54
66473;BMP280;70264;48.802;9.224;2023-07-24T02:05:10;98270.47;;;19.43
66473;BMP280;70264;48.802;9.224;2023-07-24T02:07:38;98280.44;;;19.56
66473;BMP280;70264;48.802;9.224;2023-07-24T02:10:04;98280.44;;;19.56
66473;BMP280;70264;48.802;9.224;2023-07-24T02:12:29;98273.97;;;19.63
66473;BMP280;70264;48.802;9.224;2023-07-24T02:14:54;98266.72;;;19.60
66473;BMP280;70264;48.802;9.224;2023-07-24T02:17:23;98256.13;;;19.67
66473;BMP280;70264;48.802;9.224;2023-07-24T02:19:48;98247.59;;;19.71
66473;BMP280;70264;48.802;9.224;2023-07-24T02:22:15;98249.66;;;19.69
66473;BMP280;70264;48.802;9.224;2023-07-24T02:24:42;98246.00;;;19.65
66473;BMP280;70264;48.802;9.224;2023-07-24T02:27:11;98252.47;;;19.63
66473;BMP280;70264;48.802;9.224;2023-07-24T02:29:37;98247.81;;;19.65
66473;BMP280;70264;48.802;9.224;2023-07-24T02:32:02;98246.75;;;19.61
66473;BMP280;70264;48.802;9.224;2023-07-24T02:34:28;98254.84;;;19.69
66473;BMP280;70264;48.802;9.224;2023-07-24T02:36:53;98264.09;;;19.60
66473;BMP280;70264;48.802;9.224;2023-07-24T02:39:19;98253.03;;;19.70
66473;BMP280;70264;48.802;9.224;2023-07-24T02:41:45;98241.91;;;19.79
66473;BMP280;70264;48.802;9.224;2023-07-24T02:44:10;98240.38;;;19.78
66473;BMP280;70264;48.802;9.224;2023-07-24T02:46:36;98234.66;;;19.76
66473;BMP280;70264;48.802;9.224;2023-07-24T02:49:01;98231.78;;;19.73
66473;BMP280;70264;48.802;9.224;2023-07-24T02:51:29;98232.00;;;19.66
66473;BMP280;70264;48.802;9.224;2023-07-24T02:53:54;98223.16;;;19.62
66473;BMP280;70264;48.802;9.224;2023-07-24T02:56:20;98211.50;;;19.65
66473;BMP280;70264;48.802;9.224;2023-07-24T02:58:46;98217.44;;;19.60
66473;BMP280;70264;48.802;9.224;2023-07-24T03:01:13;98226.25;;;19.54
66473;BMP280;70264;48.802;9.224;2023-07-24T03:03:42;98227.00;;;19.55
66473;BMP280;70264;48.802;9.224;2023-07-24T03:06:07;98207.84;;;19.56
66473;BMP280;70264;48.802;9.224;2023-07-24T03:08:32;98199.22;;;19.45
66473;BMP280;70264;48.802;9.224;2023-07-24T03:10:58;98194.78;;;19.41
66473;BMP280;70264;48.802;9.224;2023-07-24T03:13:24;98205.88;;;19.36
66473;BMP280;70264;48.802;9.224;2023-07-24T03:15:53;98210.56;;;19.39
66473;BMP280;70264;48.802;9.224;2023-07-24T03:18:24;98210.00;;;19.27
66473;BMP280;70264;48.802;9.224;2023-07-24T03:20:50;98198.56;;;19.28
66473;BMP280;70264;48.802;9.224;2023-07-24T03:23:15;98187.13;;;19.19
66473;BMP280;70264;48.802;9.224;2023-07-24T03:25:41;98177.81;;;19.23
66473;BMP280;70264;48.802;9.224;2023-07-24T03:28:06;98187.66;;;19.21
66473;BMP280;70264;48.802;9.224;2023-07-24T03:30:31;98192.53;;;19.17
66473;BMP280;70264;48.802;9.224;2023-07-24T03:32:57;98203.19;;;19.21
66473;BMP280;70264;48.802;9.224;2023-07-24T03:35:22;98202.84;;;19.07
66473;BMP280;70264;48.802;9.224;2023-07-24T03:37:48;98203.63;;;19.08
66473;BMP280;70264;48.802;9.224;2023-07-24T03:40:13;98198.97;;;19.10
66473;BMP280;70264;48.802;9.224;2023-07-24T03:42:41;98206.75;;;19.10
66473;BMP280;70264;48.802;9.224;2023-07-24T03:45:09;98196.09;;;19.11
66473;BMP280;70264;48.802;9.224;2023-07-24T03:47:36;98196.16;;;19.16
66473;BMP280;70264;48.802;9.224;2023-07-24T03:50:04;98199.81;;;19.20
66473;BMP280;70264;48.802;9.224;2023-07-24T03:52:30;98190.97;;;19.16
66473;BMP280;70264;48.802;9.224;2023-07-24T03:54:57;98191.72;;;19.12
66473;BMP280;70264;48.802;9.224;2023-07-24T03:57:22;98191.22;;;19.15
66473;BMP280;70264;48.802;9.224;2023-07-24T03:59:50;98187.41;;;19.22
66473;BMP280;70264;48.802;9.224;2023-07-24T04:02:18;98187.19;;;19.34
66473;BMP280;70264;48.802;9.224;2023-07-24T04:04:49;98183.06;;;19.38
66473;BMP280;70264;48.802;9.224;2023-07-24T04:07:14;98190.94;;;19.48
66473;BMP280;70264;48.802;9.224;2023-07-24T04:09:42;98192.00;;;19.52
66473;BMP280;70264;48.802;9.224;2023-07-24T04:12:09;98197.47;;;19.56
66473;BMP280;70264;48.802;9.224;2023-07-24T04:14:34;98193.56;;;19.58
66473;BMP280;70264;48.802;9.224;2023-07-24T04:17:02;98194.09;;;19.60
66473;BMP280;70264;48.802;9.224;2023-07-24T04:19:27;98182.94;;;19.60
66473;BMP280;70264;48.802;9.224;2023-07-24T04:21:53;98182.19;;;19.64
66473;BMP280;70264;48.802;9.224;2023-07-24T04:24:18;98176.00;;;19.70
66473;BMP280;70264;48.802;9.224;2023-07-24T04:26:46;98164.34;;;19.73
66473;BMP280;70264;48.802;9.224;2023-07-24T04:29:14;98169.28;;;19.74
66473;BMP280;70264;48.802;9.224;2023-07-24T04:31:42;98161.78;;;19.83
66473;BMP280;70264;48.802;9.224;2023-07-24T04:34:09;98150.38;;;19.79
66473;BMP280;70264;48.802;9.224;2023-07-24T04:36:34;98146.00;;;20.00
66473;BMP280;70264;48.802;9.224;2023-07-24T04:39:04;98138.25;;;20.15
66473;BMP280;70264;48.802;9.224;2023-07-24T04:41:32;98133.84;;;20.20
66473;BMP280;70264;48.802;9.224;2023-07-24T04:43:59;98140.59;;;20.26
66473;BMP280;70264;48.802;9.224;2023-07-24T04:46:27;98145.28;;;20.24
66473;BMP280;70264;48.802;9.224;2023-07-24T04:48:54;98148.66;;;20.20
66473;BMP280;70264;48.802;9.224;2023-07-24T04:51:22;98139.56;;;20.32
66473;BMP280;70264;48.802;9.224;2023-07-24T04:53:50;98142.44;;;20.26
66473;BMP280;70264;48.802;9.224;2023-07-24T04:56:17;98142.94;;;20.18
66473;BMP280;70264;48.802;9.224;2023-07-24T04:58:45;98135.69;;;20.25
66473;BMP280;70264;48.802;9.224;2023-07-24T05:01:10;98142.41;;;20.36
66473;BMP280;70264;48.802;9.224;2023-07-24T05:03:36;98138.28;;;20.35
66473;BMP280;70264;48.802;9.224;2023-07-24T05:06:01;98136.75;;;20.49
66473;BMP280;70264;48.802;9.224;2023-07-24T05:08:26;98136.19;;;20.57
66473;BMP280;70264;48.802;9.224;2023-07-24T05:10:55;98129.47;;;20.56
66473;BMP280;70264;48.802;9.224;2023-07-24T05:13:21;98134.13;;;20.54
66473;BMP280;70264;48.802;9.224;2023-07-24T05:15:46;98125.59;;;20.69
66473;BMP280;70264;48.802;9.224;2023-07-24T05:18:11;98126.59;;;20.58
66473;BMP280;70264;48.802;9.224;2023-07-24T05:20:37;98130.75;;;20.59
66473;BMP280;70264;48.802;9.224;2023-07-24T05:23:02;98125.81;;;20.57
66473;BMP280;70264;48.802;9.224;2023-07-24T05:25:27;98135.72;;;20.60
66473;BMP280;70264;48.802;9.224;2023-07-24T05:27:53;98135.19;;;20.63
66473;BMP280;70264;48.802;9.224;2023-07-24T05:30:20;98140.13;;;20.65
66473;BMP280;70264;48.802;9.224;2023-07-24T05:32:48;98138.03;;;20.62
66473;BMP280;70264;48.802;9.224;2023-07-24T05:35:14;98155.19;;;20.63
66473;BMP280;70264;48.802;9.224;2023-07-24T05:37:41;98165.03;;;20.66
66473;BMP280;70264;48.802;9.224;2023-07-24T05:40:07;98161.94;;;20.69
66473;BMP280;70264;48.802;9.224;2023-07-24T05:42:35;98173.09;;;20.79
66473;BMP280;70264;48.802;9.224;2023-07-24T05:45:07;98179.84;;;20.75
66473;BMP280;70264;48.802;9.224;2023-07-24T05:47:32;98181.91;;;20.78
66473;BMP280;70264;48.802;9.224;2023-07-24T05:49:58;98177.25;;;20.80
66473;BMP280;70264;48.802;9.224;2023-07-24T05:52:25;98183.25;;;20.81
66473;BMP280;70264;48.802;9.224;2023-07-24T05:54:53;98188.69;;;20.79
66473;BMP280;70264;48.802;9.224;2023-07-24T05:57:19;98182.47;;;20.80
66473;BMP280;70264;48.802;9.224;2023-07-24T05:59:44;98190.78;;;20.88
66473;BMP280;70264;48.802;9.224;2023-07-24T06:02:09;98193.13;;;20.84
66473;BMP280;70264;48.802;9.224;2023-07-24T06:04:35;98194.41;;;20.97
66473;BMP280;70264;48.802;9.224;2023-07-24T06:07:01;98187.91;;;21.04
66473;BMP280;70264;48.802;9.224;2023-07-24T06:09:26;98190.75;;;21.03
66473;BMP280;70264;48.802;9.224;2023-07-24T06:11:51;98190.00;;;21.02
66473;BMP280;70264;48.802;9.224;2023-07-24T06:14:16;98190.50;;;21.14
66473;BMP280;70264;48.802;9.224;2023-07-24T06:16:44;98188.91;;;21.28
66473;BMP280;70264;48.802;9.224;2023-07-24T06:19:09;98180.81;;;21.40
66473;BMP280;70264;48.802;9.224;2023-07-24T06:21:35;98188.63;;;21.40
66473;BMP280;70264;48.802;9.224;2023-07-24T06:24:02;98188.91;;;21.39
66473;BMP280;70264;48.802;9.224;2023-07-24T06:26:27;98184.91;;;21.51
66473;BMP280;70264;48.802;9.224;2023-07-24T06:28:56;98177.41;;;21.45
66473;BMP280;70264;48.802;9.224;2023-07-24T06:31:24;98169.28;;;21.66
66473;BMP280;70264;48.802;9.224;2023-07-24T06:33:49;98167.16;;;21.68
66473;BMP280;70264;48.802;9.224;2023-07-24T06:36:14;98158.88;;;21.61
66473;BMP280;70264;48.802;9.224;2023-07-24T06:38:42;98151.81;;;21.67
66473;BMP280;70264;48.802;9.224;2023-07-24T06:41:11;98144.69;;;21.88
66473;BMP280;70264;48.802;9.224;2023-07-24T06:43:36;98148.53;;;21.95
66473;BMP280;70264;48.802;9.224;2023-07-24T06:46:01;98137.34;;;21.95
66473;BMP280;70264;48.802;9.224;2023-07-24T06:48:27;98135.50;;;22.00
66473;BMP280;70264;48.802;9.224;2023-07-24T06:50:54;98139.06;;;22.14
66473;BMP280;70264;48.802;9.224;2023-07-24T06:53:19;98128.03;;;22.27
66473;BMP280;70264;48.802;9.224;2023-07-24T06:55:47;98132.53;;;22.17
66473;BMP280;70264;48.802;9.224;2023-07-24T06:58:12;98138.34;;;22.09
66473;BMP280;70264;48.802;9.224;2023-07-24T07:00:40;98141.38;;;22.16
66473;BMP280;70264;48.802;9.224;2023-07-24T07:03:08;98134.06;;;22.18
66473;BMP280;70264;48.802;9.224;2023-07-24T07:05:35;98133.22;;;22.32
66473;BMP280;70264;48.802;9.224;2023-07-24T07:08:03;98129.59;;;22.28
66473;BMP280;70264;48.802;9.224;2023-07-24T07:10:30;98125.63;;;22.36
66473;BMP280;70264;48.802;9.224;2023-07-24T07:12:56;98126.84;;;22.44
66473;BMP280;70264;48.802;9.224;2023-07-24T07:15:23;98128.41;;;22.45
66473;BMP280;70264;48.802;9.224;2023-07-24T07:17:49;98134.69;;;22.44
66473;BMP280;70264;48.802;9.224;2023-07-24T07:20:19;98148.19;;;22.46
66473;BMP280;70264;48.802;9.224;2023-07-24T07:22:44;98152.59;;;22.50
66473;BMP280;70264;48.802;9.224;2023-07-24T07:25:12;98171.66;;;22.46
66473;BMP280;70264;48.802;9.224;2023-07-24T07:27:37;98168.53;;;22.44
66473;BMP280;70264;48.802;9.224;2023-07-24T07:30:05;98169.81;;;22.46
66473;BMP280;70264;48.802;9.224;2023-07-24T07:32:31;98178.88;;;22.54
66473;BMP280;70264;48.802;9.224;2023-07-24T07:34:56;98178.63;;;22.55
66473;BMP280;70264;48.802;9.224;2023-07-24T07:37:22;98185.16;;;22.53
66473;BMP280;70264;48.802;9.224;2023-07-24T07:39:47;98189.06;;;22.55
66473;BMP280;70264;48.802;9.224;2023-07-24T07:42:12;98198.72;;;22.50
66473;BMP280;70264;48.802;9.224;2023-07-24T07:44:38;98201.06;;;22.51
66473;BMP280;70264;48.802;9.224;2023-07-24T07:47:06;98207.44;;;22.69
66473;BMP280;70264;48.802;9.224;2023-07-24T07:49:34;98216.00;;;22.74
66473;BMP280;70264;48.802;9.224;2023-07-24T07:51:59;98216.03;;;22.69
66473;BMP280;70264;48.802;9.224;2023-07-24T07:54:24;98214.91;;;22.80
66473;BMP280;70264;48.802;9.224;2023-07-24T07:56:52;98218.00;;;22.82
66473;BMP280;70264;48.802;9.224;2023-07-24T07:59:20;98224.00;;;22.83
66473;BMP280;70264;48.802;9.224;2023-07-24T08:01:45;98225.75;;;22.92
66473;BMP280;70264;48.802;9.224;2023-07-24T08:04:13;98227.84;;;22.90
66473;BMP280;70264;48.802;9.224;2023-07-24T08:06:38;98243.75;;;22.89
66473;BMP280;70264;48.802;9.224;2023-07-24T08:09:06;98259.41;;;22.89
66473;BMP280;70264;48.802;9.224;2023-07-24T08:11:34;98270.88;;;22.88
66473;BMP280;70264;48.802;9.224;2023-07-24T08:13:59;98268.28;;;22.88
66473;BMP280;70264;48.802;9.224;2023-07-24T08:16:24;98260.72;;;22.86
66473;BMP280;70264;48.802;9.224;2023-07-24T08:18:49;98240.13;;;22.85
66473;BMP280;70264;48.802;9.224;2023-07-24T08:21:15;98226.91;;;22.81
66473;BMP280;70264;48.802;9.224;2023-07-24T08:23:43;98234.50;;;22.73
66473;BMP280;70264;48.802;9.224;2023-07-24T08:26:13;98229.88;;;22.65
66473;BMP280;70264;48.802;9.224;2023-07-24T08:28:40;98235.72;;;22.52
66473;BMP280;70264;48.802;9.224;2023-07-24T08:31:08;98196.78;;;22.26
66473;BMP280;70264;48.802;9.224;2023-07-24T08:33:33;98192.78;;;22.05
66473;BMP280;70264;48.802;9.224;2023-07-24T08:36:03;98197.50;;;21.93
66473;BMP280;70264;48.802;9.224;2023-07-24T08:38:34;98178.03;;;21.85
66473;BMP280;70264;48.802;9.224;2023-07-24T08:41:12;98153.81;;;21.90
66473;BMP280;70264;48.802;9.224;2023-07-24T08:43:41;98156.88;;;21.92
66473;BMP280;70264;48.802;9.224;2023-07-24T08:46:07;98152.94;;;22.00
66473;BMP280;70264;48.802;9.224;2023-07-24T08:48:36;98137.00;;;22.11
66473;BMP280;70264;48.802;9.224;2023-07-24T08:51:03;98123.81;;;21.98
66473;BMP280;70264;48.802;9.224;2023-07-24T08:53:29;98121.03;;;22.18
66473;BMP280;70264;48.802;9.224;2023-07-24T08:55:56;98150.22;;;22.20
66473;BMP280;70264;48.802;9.224;2023-07-24T08:58:22;98140.59;;;22.20
66473;BMP280;70264;48.802;9.224;2023-07-24T09:00:47;98139.13;;;22.38
66473;BMP280;70264;48.802;9.224;2023-07-24T09:03:13;98128.13;;;22.46
66473;BMP280;70264;48.802;9.224;2023-07-24T09:05:38;98133.34;;;22.75
66473;BMP280;70264;48.802;9.224;2023-07-24T09:08:04;98130.88;;;22.88
66473;BMP280;70264;48.802;9.224;2023-07-24T09:10:32;98134.03;;;22.85
66473;BMP280;70264;48.802;9.224;2023-07-24T09:13:00;98148.53;;;22.97
66473;BMP280;70264;48.802;9.224;2023-07-24T09:15:25;98153.25;;;23.18
66473;BMP280;70264;48.802;9.224;2023-07-24T09:17:51;98151.13;;;22.97
66473;BMP280;70264;48.802;9.224;2023-07-24T09:20:18;98149.47;;;23.29
66473;BMP280;70264;48.802;9.224;2023-07-24T09:22:51;98145.56;;;23.51
66473;BMP280;70264;48.802;9.224;2023-07-24T09:25:19;98136.81;;;23.79
66473;BMP280;70264;48.802;9.224;2023-07-24T09:27:56;98140.47;;;23.96
66473;BMP280;70264;48.802;9.224;2023-07-24T09:30:22;98139.63;;;24.01
66473;BMP280;70264;48.802;9.224;2023-07-24T09:32:58;98135.38;;;24.24
66473;BMP280;70264;48.802;9.224;2023-07-24T09:35:23;98128.94;;;24.16
66473;BMP280;70264;48.802;9.224;2023-07-24T09:38:01;98119.97;;;24.04
66473;BMP280;70264;48.802;9.224;2023-07-24T09:40:36;98115.84;;;23.84
66473;BMP280;70264;48.802;9.224;2023-07-24T09:43:16;98121.28;;;23.69
66473;BMP280;70264;48.802;9.224;2023-07-24T09:45:44;98133.56;;;23.50
66473;BMP280;70264;48.802;9.224;2023-07-24T09:48:16;98130.06;;;23.35
66473;BMP280;70264;48.802;9.224;2023-07-24T09:50:42;98144.91;;;23.16
66473;BMP280;70264;48.802;9.224;2023-07-24T09:53:27;98147.44;;;22.98
66473;BMP280;70264;48.802;9.224;2023-07-24T09:58:20;98182.94;;;22.93
66473;BMP280;70264;48.802;9.224;2023-07-24T10:00:47;98199.53;;;22.79
66473;BMP280;70264;48.802;9.224;2023-07-24T10:03:14;98188.91;;;22.70
66473;BMP280;70264;48.802;9.224;2023-07-24T10:05:46;98200.81;;;22.81
66473;BMP280;70264;48.802;9.224;2023-07-24T10:08:11;98205.97;;;22.58
66473;BMP280;70264;48.802;9.224;2023-07-24T10:10:40;98215.22;;;22.74
66473;BMP280;70264;48.802;9.224;2023-07-24T10:13:06;98213.25;;;22.89
66473;BMP280;70264;48.802;9.224;2023-07-24T10:15:32;98223.16;;;22.87
66473;BMP280;70264;48.802;9.224;2023-07-24T10:18:08;98228.53;;;22.67
66473;BMP280;70264;48.802;9.224;2023-07-24T10:20:38;98235.41;;;22.58
66473;BMP280;70264;48.802;9.224;2023-07-24T10:23:05;98222.44;;;22.48
66473;BMP280;70264;48.802;9.224;2023-07-24T10:25:31;98227.38;;;22.55
66473;BMP280;70264;48.802;9.224;2023-07-24T10:28:12;98219.31;;;22.46
66473;BMP280;70264;48.802;9.224;2023-07-24T10:30:43;98224.53;;;22.46
66473;BMP280;70264;48.802;9.224;2023-07-24T10:33:19;98219.81;;;22.48
66473;BMP280;70264;48.802;9.224;2023-07-24T10:35:52;98217.28;;;22.38
66473;BMP280;70264;48.802;9.224;2023-07-24T10:38:18;98223.13;;;22.25
66473;BMP280;70264;48.802;9.224;2023-07-24T10:40:47;98234.03;;;22.27
66473;BMP280;70264;48.802;9.224;2023-07-24T10:43:19;98244.47;;;22.27
66473;BMP280;70264;48.802;9.224;2023-07-24T10:48:16;98242.94;;;22.21
66473;BMP280;70264;48.802;9.224;2023-07-24T10:50:46;98251.25;;;22.23
66473;BMP280;70264;48.802;9.224;2023-07-24T10:53:15;98258.91;;;22.09
66473;BMP280;70264;48.802;9.224;2023-07-24T10:55:41;98263.94;;;21.80
66473;BMP280;70264;48.802;9.224;2023-07-24T10:58:08;98264.47;;;21.77
66473;BMP280;70264;48.802;9.224;2023-07-24T11:00:33;98272.25;;;21.82
66473;BMP280;70264;48.802;9.224;2023-07-24T11:02:59;98270.53;;;21.58
66473;BMP280;70264;48.802;9.224;2023-07-24T11:05:27;98274.16;;;21.57
66473;BMP280;70264;48.802;9.224;2023-07-24T11:07:52;98272.34;;;21.27
66473;BMP280;70264;48.802;9.224;2023-07-24T11:10:21;98269.25;;;21.25
66473;BMP280;70264;48.802;9.224;2023-07-24T11:12:49;98252.63;;;21.11
66473;BMP280;70264;48.802;9.224;2023-07-24T11:15:24;98249.00;;;21.02
66473;BMP280;70264;48.802;9.224;2023-07-24T11:17:54;98216.22;;;21.01
66473;BMP280;70264;48.802;9.224;2023-07-24T11:20:21;98197.50;;;20.99
66473;BMP280;70264;48.802;9.224;2023-07-24T11:22:49;98181.66;;;20.90
66473;BMP280;70264;48.802;9.224;2023-07-24T11:25:14;98182.19;;;20.97
66473;BMP280;70264;48.802;9.224;2023-07-24T11:27:41;98161.66;;;20.91
66473;BMP280;70264;48.802;9.224;2023-07-24T11:30:09;98161.66;;;21.01
66473;BMP280;70264;48.802;9.224;2023-07-24T11:32:40;98159.03;;;21.06
66473;BMP280;70264;48.802;9.224;2023-07-24T11:35:07;98113.78;;;21.17
66473;BMP280;70264;48.802;9.224;2023-07-24T11:37:37;98067.44;;;21.29
66473;BMP280;70264;48.802;9.224;2023-07-24T11:40:04;98096.88;;;21.73
66473;BMP280;70264;48.802;9.224;2023-07-24T11:42:30;98113.72;;;22.25
66473;BMP280;70264;48.802;9.224;2023-07-24T11:44:55;98110.22;;;22.68
66473;BMP280;70264;48.802;9.224;2023-07-24T11:47:21;98089.78;;;23.04
66473;BMP280;70264;48.802;9.224;2023-07-24T11:50:01;98119.00;;;23.01
66473;BMP280;70264;48.802;9.224;2023-07-24T11:52:43;98093.38;;;23.27
66473;BMP280;70264;48.802;9.224;2023-07-24T11:55:32;98101.94;;;23.09
66473;BMP280;70264;48.802;9.224;2023-07-24T11:57:59;98103.22;;;22.87
66473;BMP280;70264;48.802;9.224;2023-07-24T12:00:26;98125.03;;;22.44
66473;BMP280;70264;48.802;9.224;2023-07-24T12:02:58;98161.69;;;22.19
66473;BMP280;70264;48.802;9.224;2023-07-24T12:05:24;98155.41;;;21.86
66473;BMP280;70264;48.802;9.224;2023-07-24T12:07:54;98143.75;;;21.68
66473;BMP280;70264;48.802;9.224;2023-07-24T12:10:26;98150.91;;;21.92
66473;BMP280;70264;48.802;9.224;2023-07-24T12:12:53;98152.16;;;21.99
66473;BMP280;70264;48.802;9.224;2023-07-24T12:15:18;98147.25;;;21.93
66473;BMP280;70264;48.802;9.224;2023-07-24T12:17:43;98139.94;;;22.00
66473;BMP280;70264;48.802;9.224;2023-07-24T12:20:09;98157.66;;;21.98
66473;BMP280;70264;48.802;9.224;2023-07-24T12:22:38;98160.75;;;22.05
66473;BMP280;70264;48.802;9.224;2023-07-24T12:25:04;98159.34;;;22.17
66473;BMP280;70264;48.802;9.224;2023-07-24T12:27:32;98148.16;;;22.17
66473;BMP280;70264;48.802;9.224;2023-07-24T12:30:00;98153.38;;;22.17
66473;BMP280;70264;48.802;9.224;2023-07-24T12:32:28;98157.47;;;22.28
66473;BMP280;70264;48.802;9.224;2023-07-24T12:34:53;98168.63;;;22.33
66473;BMP280;70264;48.802;9.224;2023-07-24T12:37:19;98156.78;;;22.46
66473;BMP280;70264;48.802;9.224;2023-07-24T12:39:48;98149.34;;;22.63
66473;BMP280;70264;48.802;9.224;2023-07-24T12:42:13;98142.94;;;22.79
66473;BMP280;70264;48.802;9.224;2023-07-24T12:44:39;98137.88;;;22.93
66473;BMP280;70264;48.802;9.224;2023-07-24T12:47:05;98141.72;;;23.01
66473;BMP280;70264;48.802;9.224;2023-07-24T12:49:34;98141.75;;;23.19
66473;BMP280;70264;48.802;9.224;2023-07-24T12:52:00;98130.00;;;23.22
66473;BMP280;70264;48.802;9.224;2023-07-24T12:54:28;98123.25;;;23.58
66473;BMP280;70264;48.802;9.224;2023-07-24T12:56:55;98116.69;;;23.79
66473;BMP280;70264;48.802;9.224;2023-07-24T12:59:21;98119.47;;;24.20
66473;BMP280;70264;48.802;9.224;2023-07-24T13:01:48;98099.63;;;24.19
66473;BMP280;70264;48.802;9.224;2023-07-24T13:04:14;98099.06;;;24.04
66473;BMP280;70264;48.802;9.224;2023-07-24T13:06:39;98096.44;;;24.22
66473;BMP280;70264;48.802;9.224;2023-07-24T13:09:07;98060.75;;;24.31
66473;BMP280;70264;48.802;9.224;2023-07-24T13:11:34;98073.25;;;24.62
66473;BMP280;70264;48.802;9.224;2023-07-24T13:14:02;98085.94;;;24.54
66473;BMP280;70264;48.802;9.224;2023-07-24T13:16:30;98081.31;;;24.65
66473;BMP280;70264;48.802;9.224;2023-07-24T13:18:55;98085.34;;;24.98
66473;BMP280;70264;48.802;9.224;2023-07-24T13:21:23;98078.09;;;24.95
66473;BMP280;70264;48.802;9.224;2023-07-24T13:23:53;98069.72;;;25.21
66473;BMP280;70264;48.802;9.224;2023-07-24T13:26:18;98060.50;;;25.45
66473;BMP280;70264;48.802;9.224;2023-07-24T13:28:43;98059.03;;;25.53
66473;BMP280;70264;48.802;9.224;2023-07-24T13:31:19;98056.81;;;25.46
66473;BMP280;70264;48.802;9.224;2023-07-24T13:33:45;98053.50;;;25.77
66473;BMP280;70264;48.802;9.224;2023-07-24T13:36:11;98057.97;;;25.54
66473;BMP280;70264;48.802;9.224;2023-07-24T13:38:36;98044.09;;;25.31
66473;BMP280;70264;48.802;9.224;2023-07-24T13:41:06;98038.47;;;25.60
66473;BMP280;70264;48.802;9.224;2023-07-24T13:43:33;98020.63;;;25.48
66473;BMP280;70264;48.802;9.224;2023-07-24T13:45:59;98016.00;;;25.23
66473;BMP280;70264;48.802;9.224;2023-07-24T13:48:26;98004.56;;;25.86
66473;BMP280;70264;48.802;9.224;2023-07-24T13:50:52;97999.97;;;25.69
66473;BMP280;70264;48.802;9.224;2023-07-24T13:53:22;97991.09;;;25.48
66473;BMP280;70264;48.802;9.224;2023-07-24T13:55:48;97987.56;;;26.14
66473;BMP280;70264;48.802;9.224;2023-07-24T13:58:16;97978.22;;;26.47
66473;BMP280;70264;48.802;9.224;2023-07-24T14:00:41;97970.84;;;26.66
66473;BMP280;70264;48.802;9.224;2023-07-24T14:03:09;97956.03;;;27.22
66473;BMP280;70264;48.802;9.224;2023-07-24T14:05:39;97965.66;;;28.23
66473;BMP280;70264;48.802;9.224;2023-07-24T14:08:06;97965.66;;;28.23
66473;BMP280;70264;48.802;9.224;2023-07-24T14:10:34;97957.59;;;29.47
66473;BMP280;70264;48.802;9.224;2023-07-24T14:12:59;97952.19;;;29.43
66473;BMP280;70264;48.802;9.224;2023-07-24T14:15:27;97965.63;;;29.38
66473;BMP280;70264;48.802;9.224;2023-07-24T14:17:53;97967.59;;;28.76
66473;BMP280;70264;48.802;9.224;2023-07-24T14:20:21;97963.03;;;28.85